Time;durP1;ratioP1;P1;durP2;ratioP2;P2;SDS_P1;SDS_P2;PMS_P1;PMS_P2;Temp;Humidity;BMP_temperature;BMP_pressure;BME280_temperature;BME280_humidity;BME280_pressure;Samples;Min_cycle;Max_cycle;Signal;HPM_P1;HPM_P2
2022/06/06 00:02:20;;;;;;;8.93;6.80;;;;;;;25.15;56.27;100944.56;4935096;29;20050;-87
2022/06/06 00:04:46;;;;;;;8.98;6.60;;;;;;;25.10;56.38;100937.13;4934803;29;20480;-87
2022/06/06 00:07:11;;;;;;;12.70;6.97;;;;;;;24.98;56.43;100929.63;4934863;29;20420;-87
2022/06/06 00:09:37;;;;;;;10.38;6.93;;;;;;;25.09;56.27;100947.88;4950954;29;20034;-88
2022/06/06 00:12:03;;;;;;;9.00;6.95;;;;;;;25.16;56.45;100965.59;4951025;29;20027;-88
2022/06/06 00:14:29;;;;;;;10.68;6.78;;;;;;;25.12;56.52;100955.50;4935205;29;20031;-88
2022/06/06 00:16:54;;;;;;;11.32;7.40;;;;;;;25.00;56.91;100960.25;4951256;29;20035;-87
2022/06/06 00:19:20;;;;;;;10.38;7.32;;;;;;;24.84;57.31;100953.06;4934765;29;20034;-88
2022/06/06 00:21:46;;;;;;;12.02;7.53;;;;;;;24.75;57.69;100969.88;4934969;29;20533;-88
2022/06/06 00:24:12;;;;;;;12.90;8.52;;;;;;;24.66;58.37;100984.06;4919410;28;20039;-86
2022/06/06 00:26:37;;;;;;;11.98;8.32;;;;;;;24.67;58.22;100992.81;4921384;29;20424;-87
2022/06/06 00:29:04;;;;;;;11.55;8.60;;;;;;;24.62;58.95;101001.25;4938373;29;20042;-86
2022/06/06 00:36:58;;;;;;;11.32;9.43;;;;;;;24.57;59.78;100991.13;4954090;29;20038;-87
2022/06/06 00:39:24;;;;;;;17.77;10.07;;;;;;;24.34;60.89;100986.53;4937891;29;20027;-87
2022/06/06 00:41:50;;;;;;;13.10;9.98;;;;;;;24.38;60.86;100987.88;4938159;29;20066;-87
2022/06/06 00:44:21;;;;;;;12.70;9.57;;;;;;;24.34;61.41;100989.16;4937917;29;20540;-91
2022/06/06 00:46:52;;;;;;;16.40;10.10;;;;;;;24.22;61.81;101010.53;4938222;29;20098;-87
2022/06/06 00:49:24;;;;;;;14.60;10.33;;;;;;;24.08;62.09;101010.25;4922315;29;20062;-87
2022/06/06 00:51:49;;;;;;;;;;;;;;;24.27;62.10;101029.41;4938519;29;20118;-88
2022/06/06 00:54:15;;;;;;;25.40;10.57;;;;;;;24.13;63.28;101042.34;4937786;29;20062;-90
2022/06/06 00:56:43;;;;;;;44.15;14.35;;;;;;;24.10;67.58;101048.78;4922181;29;20040;-88
2022/06/06 00:59:14;;;;;;;28.17;12.65;;;;;;;23.74;69.46;101016.25;4922334;29;20118;-89
2022/06/06 01:01:40;;;;;;;20.10;12.23;;;;;;;23.62;70.09;101028.84;4922194;29;20035;-88
2022/06/06 01:04:06;;;;;;;24.48;13.25;;;;;;;23.45;70.99;101009.34;4937506;29;20027;-89
2022/06/06 01:06:33;;;;;;;20.77;12.52;;;;;;;23.38;69.95;101010.91;4937854;29;20066;-88
2022/06/06 01:08:59;;;;;;;17.98;12.55;;;;;;;23.19;70.54;101011.00;4921717;29;20078;-89
2022/06/06 01:11:24;;;;;;;18.35;12.55;;;;;;;23.15;71.63;101010.47;4937693;29;20031;-88
2022/06/06 01:13:50;;;;;;;16.08;13.40;;;;;;;23.07;71.78;100986.63;4953348;29;20034;-89
2022/06/06 01:16:21;;;;;;;15.93;12.40;;;;;;;23.07;71.73;101002.47;4921354;29;20031;-89
2022/06/06 01:19:06;;;;;;;15.88;12.27;;;;;;;22.89;70.91;100998.94;4953046;29;20031;-88
2022/06/06 01:21:50;;;;;;;15.98;11.70;;;;;;;22.72;69.81;100986.50;4939420;29;20539;-88
2022/06/06 01:24:34;;;;;;;19.95;12.13;;;;;;;22.60;68.94;100986.66;4953344;29;20525;-88
2022/06/06 01:27:15;;;;;;;17.00;12.00;;;;;;;22.40;69.87;100965.78;4954553;28;20027;-89
2022/06/06 01:29:43;;;;;;;17.85;12.15;;;;;;;22.38;70.86;100960.66;4953059;29;20023;-90
2022/06/06 01:32:14;;;;;;;17.55;11.60;;;;;;;22.42;70.54;100985.78;4921283;29;20062;-88
2022/06/06 01:34:41;;;;;;;18.23;12.20;;;;;;;22.28;71.27;100965.13;4937459;29;20485;-89
2022/06/06 01:37:25;;;;;;;16.63;12.27;;;;;;;22.33;70.97;100989.25;4936754;29;20032;-89
2022/06/06 01:39:50;;;;;;;17.63;12.88;;;;;;;22.37;72.55;100987.16;4954286;28;20436;-89
2022/06/06 01:42:28;;;;;;;16.70;12.45;;;;;;;22.32;71.65;100975.25;4921260;29;20484;-89
2022/06/06 01:45:18;;;;;;;16.38;11.70;;;;;;;22.32;70.31;100963.88;4954110;28;20023;-88
2022/06/06 01:47:49;;;;;;;15.60;12.65;;;;;;;22.13;71.25;100942.84;4923054;29;20094;-87
2022/06/06 01:50:15;;;;;;;16.83;11.75;;;;;;;22.21;70.94;100966.66;4921400;29;20086;-89
2022/06/06 01:52:56;;;;;;;17.90;12.70;;;;;;;22.14;71.59;100961.13;4936891;29;20039;-88
2022/06/06 01:55:22;;;;;;;18.65;12.00;;;;;;;22.28;70.56;100980.94;4954270;28;20400;-90
2022/06/06 01:57:48;;;;;;;17.00;12.65;;;;;;;22.20;71.26;100975.53;4921026;29;20034;-88
2022/06/06 02:00:14;;;;;;;18.40;12.40;;;;;;;22.20;71.47;100972.91;4936253;29;20069;-88
2022/06/06 02:02:43;;;;;;;16.33;12.07;;;;;;;22.08;70.38;100971.41;4936899;29;20031;-88
2022/06/06 02:05:12;;;;;;;20.35;12.90;;;;;;;22.09;70.37;100971.25;4921643;29;20059;-88
2022/06/06 02:07:39;;;;;;;17.60;12.57;;;;;;;22.05;71.34;100991.75;4937083;29;20032;-89
2022/06/06 02:10:05;;;;;;;15.43;11.93;;;;;;;21.91;69.81;100996.59;4936696;29;20489;-90
2022/06/06 02:12:30;;;;;;;19.50;12.57;;;;;;;21.76;70.80;100975.13;4936566;29;20058;-89
2022/06/06 02:14:56;;;;;;;17.85;12.60;;;;;;;21.86;70.34;100994.41;4920327;29;20500;-90
2022/06/06 02:17:21;;;;;;;16.73;12.57;;;;;;;21.88;71.47;101017.97;4920639;29;20091;-89
2022/06/06 02:19:47;;;;;;;17.23;12.75;;;;;;;21.95;72.61;101022.53;4920508;29;20032;-89
2022/06/06 02:22:12;;;;;;;19.33;12.82;;;;;;;21.76;72.71;100998.84;4952565;29;20031;-89
2022/06/06 02:24:38;;;;;;;19.13;13.57;;;;;;;21.93;72.29;101021.84;4920469;29;20034;-88
2022/06/06 02:27:04;;;;;;;18.77;13.23;;;;;;;21.89;72.13;101023.09;4936110;29;20038;-88
2022/06/06 02:29:29;;;;;;;15.95;12.63;;;;;;;21.89;70.05;101025.72;4920082;29;20441;-90
2022/06/06 02:31:54;;;;;;;18.02;12.52;;;;;;;21.83;70.50;101023.66;4920308;29;20038;-88
2022/06/06 02:34:20;;;;;;;16.02;12.52;;;;;;;21.83;70.30;101044.72;4920325;29;20032;-88
2022/06/06 02:36:45;;;;;;;17.23;12.20;;;;;;;21.86;69.99;101040.97;4936426;29;20062;-89
2022/06/06 02:39:11;;;;;;;14.85;10.68;;;;;;;21.82;69.44;101024.59;4936338;29;20539;-88
2022/06/06 02:41:36;;;;;;;16.73;12.00;;;;;;;21.92;69.06;101020.16;4952146;29;20493;-89
2022/06/06 02:44:02;;;;;;;13.50;11.00;;;;;;;22.10;68.16;101043.22;4951622;29;20031;-90
2022/06/06 02:46:27;;;;;;;19.90;12.77;;;;;;;22.10;70.18;101051.97;4935914;29;20031;-87
2022/06/06 02:48:53;;;;;;;17.63;11.65;;;;;;;22.04;69.60;101063.03;4951044;28;20416;-88
2022/06/06 02:51:18;;;;;;;19.55;11.70;;;;;;;21.85;68.61;101050.69;4951878;29;20031;-87
2022/06/06 02:53:44;;;;;;;16.27;12.15;;;;;;;22.06;68.99;101084.81;4935897;29;20547;-88
2022/06/06 02:56:09;;;;;;;15.98;11.23;;;;;;;22.04;68.80;101084.94;4935654;29;20031;-88
2022/06/06 02:58:34;;;;;;;18.98;11.35;;;;;;;21.95;69.23;101091.03;4935588;29;20027;-87
2022/06/06 03:01:09;;;;;;;17.30;12.05;;;;;;;21.90;69.45;101090.59;4920003;29;20034;-88
2022/06/06 03:03:35;;;;;;;16.98;11.95;;;;;;;21.95;69.39;101083.13;4920056;29;20480;-88
2022/06/06 03:06:20;;;;;;;17.08;12.23;;;;;;;21.87;69.27;101082.16;4935812;29;20023;-87
2022/06/06 03:09:27;;;;;;;17.02;12.27;;;;;;;21.86;70.37;101089.22;4951815;29;20535;-87
2022/06/06 03:11:59;;;;;;;19.60;12.10;;;;;;;21.89;70.15;101088.94;4937996;29;20860;-88
2022/06/06 03:14:54;;;;;;;17.80;12.07;;;;;;;21.82;69.91;101103.63;4935301;29;20527;-87
2022/06/06 03:20:54;;;;;;;16.85;12.15;;;;;;;21.71;69.90;101095.84;4952729;29;20544;-89
2022/06/06 03:23:41;;;;;;;19.85;12.25;;;;;;;21.79;70.17;101116.22;4951526;29;20074;-87
2022/06/06 03:26:11;;;;;;;17.20;12.13;;;;;;;21.75;69.73;101078.81;4935642;29;20028;-87
2022/06/06 03:29:02;;;;;;;17.17;12.07;;;;;;;21.53;69.37;101063.22;4919794;29;20035;-88
2022/06/06 03:31:38;;;;;;;22.63;12.30;;;;;;;21.77;69.81;101100.56;4935434;29;20044;-86
2022/06/06 03:34:32;;;;;;;17.65;12.57;;;;;;;21.80;70.48;101102.91;4920083;29;20038;-87
2022/06/06 03:37:21;;;;;;;20.08;12.45;;;;;;;21.60;71.15;101114.38;4938966;28;20051;-90
2022/06/06 03:40:08;;;;;;;19.98;13.35;;;;;;;21.41;71.81;101125.69;4922999;28;20521;-86
2022/06/06 03:42:48;;;;;;;21.27;13.52;;;;;;;21.31;72.41;101128.28;4951906;28;20039;-87
2022/06/06 03:45:43;;;;;;;23.77;14.00;;;;;;;21.20;72.68;101126.53;4952037;29;20027;-87
2022/06/06 03:48:17;;;;;;;19.35;12.68;;;;;;;21.31;72.61;101135.34;4950576;29;20102;-86
2022/06/06 03:51:21;;;;;;;22.05;13.68;;;;;;;21.31;72.45;101146.69;4935375;29;20077;-86
2022/06/06 03:53:46;;;;;;;32.83;18.83;;;;;;;21.43;72.79;101150.91;4938331;29;20086;-87
2022/06/06 03:56:26;;;;;;;30.25;15.23;;;;;;;21.70;72.23;101133.66;4952152;28;20039;-87
2022/06/06 03:58:52;;;;;;;22.20;13.45;;;;;;;21.68;72.36;101143.50;4951399;28;20075;-90
2022/06/06 04:01:20;;;;;;;28.10;15.23;;;;;;;21.71;71.65;101149.31;4922923;29;20031;-87
2022/06/06 04:03:46;;;;;;;23.80;13.50;;;;;;;21.68;71.12;101164.56;4938794;29;20038;-86
2022/06/06 04:06:11;;;;;;;17.75;12.65;;;;;;;21.59;70.28;101163.56;4922801;29;20031;-86
2022/06/06 04:08:37;;;;;;;21.50;13.25;;;;;;;21.68;70.98;101159.31;4938062;29;20039;-85
2022/06/06 04:11:09;;;;;;;20.88;12.55;;;;;;;22.05;69.84;101157.75;4921775;29;20043;-86
2022/06/06 04:13:38;;;;;;;18.83;12.80;;;;;;;22.00;69.55;101151.19;4954307;29;20038;-87
2022/06/06 04:16:30;;;;;;;19.05;12.60;;;;;;;21.97;69.65;101144.41;4955648;28;20038;-85
2022/06/06 04:19:24;;;;;;;20.13;13.40;;;;;;;21.68;71.13;101136.44;4939831;29;20557;-86
2022/06/06 04:22:20;;;;;;;21.83;14.23;;;;;;;21.78;70.27;101162.81;4939553;29;20446;-86
2022/06/06 04:25:01;;;;;;;22.15;14.82;;;;;;;22.01;70.10;101158.13;4956004;29;20054;-87
2022/06/06 04:27:28;;;;;;;21.63;15.48;;;;;;;22.00;69.48;101157.31;4955463;28;20070;-88
2022/06/06 04:30:01;;;;;;;22.23;14.00;;;;;;;22.13;69.32;101169.44;4938771;29;20042;-93
2022/06/06 04:32:54;;;;;;;22.58;13.55;;;;;;;22.21;69.18;101172.19;4942270;29;20488;-92
2022/06/06 04:36:01;;;;;;;19.55;13.88;;;;;;;22.07;69.04;101157.63;4955380;29;20042;-90
2022/06/06 04:38:40;;;;;;;23.50;13.43;;;;;;;21.96;68.41;101137.47;4909216;29;20059;-91
2022/06/06 04:41:32;;;;;;;22.77;13.73;;;;;;;22.22;68.93;101179.13;4952810;29;20027;-86
2022/06/06 04:44:06;;;;;;;22.35;14.05;;;;;;;21.98;68.48;101171.59;4946677;29;20043;-87
2022/06/06 04:47:02;;;;;;;23.60;14.38;;;;;;;22.27;68.64;101177.75;4953604;28;20027;-89
2022/06/06 04:49:28;;;;;;;22.15;14.63;;;;;;;22.28;68.23;101182.06;4953842;29;20035;-91
2022/06/06 04:51:54;;;;;;;20.67;14.10;;;;;;;22.37;67.48;101187.50;4939854;29;20555;-89
2022/06/06 04:54:22;;;;;;;19.45;13.60;;;;;;;22.33;67.41;101181.66;4942619;29;20038;-91
2022/06/06 04:56:48;;;;;;;21.20;13.55;;;;;;;22.54;66.65;101187.63;4921706;29;20039;-88
2022/06/06 04:59:14;;;;;;;21.65;14.00;;;;;;;22.30;66.06;101164.31;4955987;28;20085;-90
2022/06/06 05:01:39;;;;;;;23.65;13.93;;;;;;;22.30;67.69;101181.91;4955186;28;20113;-87
2022/06/06 05:04:05;;;;;;;24.35;13.60;;;;;;;22.21;68.26;101193.28;4923285;29;20094;-93
2022/06/06 05:06:58;;;;;;;20.42;14.18;;;;;;;22.22;67.59;101219.53;4955940;29;20453;-88
2022/06/06 05:09:29;;;;;;;23.20;14.48;;;;;;;22.26;67.31;101215.63;4954013;29;20035;-90
2022/06/06 05:12:19;;;;;;;23.42;15.02;;;;;;;22.18;67.20;101230.47;4953563;28;20042;-85
2022/06/06 05:15:07;;;;;;;22.15;14.68;;;;;;;21.86;68.93;101230.63;4953325;29;20414;-89
2022/06/06 05:17:45;;;;;;;21.67;15.05;;;;;;;21.60;68.08;101214.44;4938607;29;20553;-86
2022/06/06 05:20:44;;;;;;;22.75;16.30;;;;;;;21.45;69.43;101227.13;4952979;29;20035;-90
2022/06/06 05:23:10;;;;;;;20.98;14.85;;;;;;;21.51;69.50;101225.75;4952941;29;20031;-90
2022/06/06 05:25:51;;;;;;;19.92;13.27;;;;;;;21.62;69.93;101223.03;4954226;29;20081;-90
2022/06/06 05:28:22;;;;;;;28.80;14.30;;;;;;;21.68;68.57;101240.94;4943444;29;20032;-89
2022/06/06 05:31:19;;;;;;;24.00;14.30;;;;;;;21.62;69.52;101242.28;4954400;29;20034;-92
2022/06/06 05:33:52;;;;;;;22.15;13.45;;;;;;;21.64;68.75;101236.91;4952423;29;20035;-89
2022/06/06 05:36:24;;;;;;;23.80;13.80;;;;;;;21.59;68.45;101226.75;4936906;29;20027;-86
2022/06/06 05:39:27;;;;;;;21.97;13.97;;;;;;;21.63;69.56;101256.28;4955182;29;20027;-90
2022/06/06 05:42:13;;;;;;;20.25;12.82;;;;;;;22.12;67.46;101252.06;4940398;29;20031;-87
2022/06/06 05:44:57;;;;;;;22.00;13.75;;;;;;;21.90;69.51;101259.19;4954095;29;20046;-89
2022/06/06 05:47:48;;;;;;;19.95;13.73;;;;;;;22.01;68.50;101261.72;4953025;28;20082;-86
2022/06/06 05:50:35;;;;;;;21.67;13.82;;;;;;;21.85;68.51;101263.19;4936927;29;20035;-88
2022/06/06 05:53:06;;;;;;;19.48;12.98;;;;;;;21.47;69.18;101256.78;4953118;28;20027;-88
2022/06/06 05:55:50;;;;;;;21.33;13.38;;;;;;;21.67;69.80;101273.50;4952195;29;20028;-89
2022/06/06 05:58:44;;;;;;;22.45;14.10;;;;;;;21.69;68.65;101275.03;4952958;29;20151;-90
2022/06/06 06:01:52;;;;;;;21.52;13.68;;;;;;;21.70;68.80;101289.03;4925070;29;20054;-89
2022/06/06 06:04:59;;;;;;;21.58;13.95;;;;;;;21.77;69.06;101284.91;4935290;29;20035;-91
2022/06/06 06:07:37;;;;;;;21.02;15.25;;;;;;;21.94;68.56;101272.94;4881036;29;20514;-88
2022/06/06 06:10:11;;;;;;;24.15;15.48;;;;;;;22.11;67.88;101303.94;4948187;29;20043;-91
2022/06/06 06:13:15;;;;;;;21.42;15.02;;;;;;;22.04;68.99;101295.72;5602437;23;21582;-93
2022/06/06 06:15:42;;;;;;;39.58;19.40;;;;;;;21.41;72.18;101230.97;4943538;23;20090;-87
2022/06/06 06:18:16;;;;;;;35.22;17.85;;;;;;;21.28;73.74;101267.19;4948534;29;20047;-91
2022/06/06 06:20:45;;;;;;;36.83;17.90;;;;;;;20.99;74.97;101293.25;4934283;29;20038;-89
2022/06/06 06:23:13;;;;;;;33.67;18.10;;;;;;;21.06;75.37;101304.94;4932056;29;20063;-90
2022/06/06 06:25:39;;;;;;;37.58;22.52;;;;;;;21.02;75.95;101261.41;4904446;29;20090;-87
2022/06/06 06:28:10;;;;;;;28.80;18.33;;;;;;;21.34;74.75;101272.78;4933803;29;20083;-85
2022/06/06 06:31:09;;;;;;;34.03;18.75;;;;;;;21.97;74.14;101286.66;4926773;29;20036;-87
2022/06/06 06:33:40;;;;;;;32.30;17.50;;;;;;;22.82;70.58;101259.81;4923256;29;20039;-86
2022/06/06 06:36:34;;;;;;;30.63;16.80;;;;;;;22.45;71.37;101238.56;4931991;29;20567;-86
2022/06/06 06:39:02;;;;;;;24.90;16.33;;;;;;;22.36;70.83;101249.91;4926177;29;20039;-83
2022/06/06 06:41:52;;;;;;;24.80;16.27;;;;;;;22.87;70.17;101262.06;4916630;29;20074;-85
2022/06/06 06:44:21;;;;;;;28.63;15.88;;;;;;;22.72;69.80;101260.78;4940414;29;20031;-87
2022/06/06 06:46:48;;;;;;;25.20;16.98;;;;;;;22.53;70.55;101267.72;4900350;29;20441;-89
2022/06/06 06:49:23;;;;;;;21.55;15.13;;;;;;;22.57;70.58;101289.34;4900457;29;20032;-92
2022/06/06 06:52:03;;;;;;;24.58;15.65;;;;;;;22.47;68.39;101299.88;4930680;29;20038;-93
2022/06/06 06:54:42;;;;;;;21.73;15.38;;;;;;;22.67;69.72;101279.66;4932619;29;20035;-90
2022/06/06 06:57:19;;;;;;;19.35;14.25;;;;;;;22.72;70.08;101266.06;4924820;29;20035;-88
2022/06/06 06:59:54;;;;;;;19.83;14.40;;;;;;;23.12;67.92;101258.88;4916114;29;20038;-86
2022/06/06 07:08:38;;;;;;;19.88;14.00;;;;;;;23.97;66.25;101275.59;4931453;29;20094;-90
2022/06/06 07:11:07;;;;;;;21.20;14.43;;;;;;;23.83;66.71;101281.38;4944625;29;20039;-86
2022/06/06 07:14:12;;;;;;;20.33;14.00;;;;;;;23.96;66.69;101279.22;4931706;29;20122;-89
2022/06/06 07:16:39;;;;;;;21.00;15.45;;;;;;;23.60;66.76;101268.53;4902883;29;20154;-90
2022/06/06 07:19:06;;;;;;;21.77;15.05;;;;;;;23.37;67.69;101267.13;4900018;29;20413;-91
2022/06/06 07:21:33;;;;;;;22.45;15.82;;;;;;;23.38;66.45;101279.38;4933248;29;20036;-88
2022/06/06 07:24:00;;;;;;;22.65;15.60;;;;;;;23.31;67.85;101279.13;4931344;29;20032;-86
2022/06/06 07:26:26;;;;;;;21.70;15.23;;;;;;;23.36;67.42;101270.75;4924007;29;20047;-84
2022/06/06 07:28:51;;;;;;;23.65;17.70;;;;;;;23.47;67.05;101279.34;4915630;29;20035;-83
2022/06/06 07:31:26;;;;;;;21.55;15.73;;;;;;;23.46;67.32;101277.69;4947242;29;20051;-85
2022/06/06 07:34:03;;;;;;;22.38;17.40;;;;;;;23.46;69.38;101287.41;4916640;29;20038;-90
2022/06/06 07:36:29;;;;;;;22.83;16.17;;;;;;;23.54;68.28;101290.19;4944512;29;20039;-85
2022/06/06 07:39:56;;;;;;;23.95;18.77;;;;;;;23.40;69.28;101287.97;4935812;29;20031;-84
2022/06/06 07:42:33;;;;;;;23.25;15.20;;;;;;;23.60;68.13;101276.44;4855759;29;20054;-87
2022/06/06 07:45:25;;;;;;;21.83;15.48;;;;;;;23.57;68.65;101276.69;4843164;29;20033;-90
2022/06/06 07:48:08;;;;;;;21.53;14.77;;;;;;;23.71;68.19;101288.63;4870753;29;20050;-87
2022/06/06 07:51:09;;;;;;;19.88;13.70;;;;;;;23.90;67.77;101280.66;4915905;29;20048;-89
2022/06/06 07:53:53;;;;;;;15.45;12.73;;;;;;;23.65;66.51;101295.31;4898949;29;20040;-85
2022/06/06 07:56:19;;;;;;;19.50;13.18;;;;;;;23.62;67.30;101277.13;4916767;29;20052;-89
2022/06/06 07:59:11;;;;;;;22.23;14.48;;;;;;;23.90;67.15;101287.75;4916646;29;20510;-86
2022/06/06 08:01:51;;;;;;;18.80;13.50;;;;;;;24.25;65.90;101306.34;4915767;29;20028;-87
2022/06/06 08:04:25;;;;;;;17.58;12.23;;;;;;;24.04;65.86;101301.28;4916399;29;20167;-87
2022/06/06 08:07:13;;;;;;;23.73;16.63;;;;;;;23.81;66.44;101285.97;4884764;29;20032;-86
2022/06/06 08:10:09;;;;;;;15.88;12.23;;;;;;;23.72;66.65;101317.56;4913713;29;20051;-87
2022/06/06 08:12:46;;;;;;;16.48;12.27;;;;;;;23.97;66.15;101313.41;4916520;29;20063;-85
2022/06/06 08:15:33;;;;;;;15.70;12.07;;;;;;;24.04;65.44;101305.75;4926425;29;20508;-87
2022/06/06 08:18:16;;;;;;;14.80;11.23;;;;;;;24.30;64.45;101309.38;4923466;29;20078;-84
2022/06/06 08:21:00;;;;;;;;;;;;;;;24.28;64.75;101310.47;4950090;29;20027;-90
2022/06/06 08:23:26;;;;;;;15.45;11.48;;;;;;;24.21;64.64;101310.25;4934952;29;20001;-89
2022/06/06 08:25:51;;;;;;;17.67;11.60;;;;;;;24.45;63.97;101307.09;4909127;29;20115;-88
2022/06/06 08:28:17;;;;;;;16.25;11.88;;;;;;;24.42;64.34;101301.28;4930823;28;20063;-88
2022/06/06 08:30:44;;;;;;;16.55;12.23;;;;;;;24.04;65.22;101306.56;4956087;28;20028;-89
2022/06/06 08:33:10;;;;;;;14.73;11.40;;;;;;;23.91;65.88;101292.88;4949512;28;20031;-88
2022/06/06 08:35:47;;;;;;;38.72;23.48;;;;;;;24.04;65.63;101287.25;4920212;29;20496;-87
2022/06/06 08:38:38;;;;;;;62.85;39.55;;;;;;;24.19;64.82;101301.66;4924262;29;20042;-88
2022/06/06 08:41:25;;;;;;;23.40;15.85;;;;;;;23.52;65.12;101280.75;4918013;29;20147;-89
2022/06/06 08:44:04;;;;;;;17.55;12.30;;;;;;;23.50;65.85;101298.50;4932956;29;20031;-85
2022/06/06 08:46:47;;;;;;;17.30;13.35;;;;;;;23.48;67.75;101309.22;4896725;28;20375;-86
2022/06/06 08:52:33;;;;;;;21.95;13.40;;;;;;;23.34;68.72;101315.78;4933108;29;20078;-88
2022/06/06 08:55:26;;;;;;;20.17;15.10;;;;;;;23.14;69.88;101312.34;4933942;29;20032;-86
2022/06/06 08:58:24;;;;;;;25.15;17.15;;;;;;;23.43;69.19;101308.81;4934216;29;20028;-83
2022/06/06 09:01:12;;;;;;;31.02;17.40;;;;;;;23.52;68.89;101300.06;4899448;29;20133;-86
2022/06/06 09:04:02;;;;;;;26.17;18.08;;;;;;;23.63;68.14;101310.47;4932791;29;20095;-84
2022/06/06 09:06:45;;;;;;;22.95;15.18;;;;;;;23.46;68.85;101313.81;4927704;29;20028;-89
2022/06/06 09:09:22;;;;;;;26.08;16.10;;;;;;;23.39;69.25;101323.28;4932020;29;20031;-89
2022/06/06 09:12:23;;;;;;;25.33;15.93;;;;;;;23.41;69.24;101327.47;4933120;29;20504;-85
2022/06/06 09:14:51;;;;;;;23.77;15.70;;;;;;;23.48;68.65;101323.25;4910655;29;20143;-89
2022/06/06 09:17:23;;;;;;;21.35;15.10;;;;;;;23.19;69.57;101307.44;4932782;29;20087;-88
2022/06/06 09:20:10;;;;;;;24.60;14.65;;;;;;;23.38;69.35;101327.72;4936695;29;20055;-89
2022/06/06 09:23:18;;;;;;;23.27;14.20;;;;;;;23.63;68.39;101326.31;4964749;28;20028;-88
2022/06/06 09:26:21;;;;;;;23.33;15.30;;;;;;;23.59;68.16;101327.56;4926999;29;20044;-86
2022/06/06 09:29:21;;;;;;;23.50;15.20;;;;;;;23.95;67.42;101320.66;4932947;29;20024;-88
2022/06/06 09:32:29;;;;;;;22.02;15.80;;;;;;;23.72;67.00;101291.13;4919619;29;20038;-87
2022/06/06 09:35:32;;;;;;;19.10;14.48;;;;;;;24.01;67.05;101329.84;4924532;29;20119;-87
2022/06/06 09:38:29;;;;;;;24.85;15.60;;;;;;;23.58;67.14;101325.88;4932932;29;20043;-85
2022/06/06 09:41:06;;;;;;;26.67;18.58;;;;;;;23.32;67.24;101323.03;4930713;29;20028;-85
2022/06/06 09:44:03;;;;;;;24.02;16.10;;;;;;;23.34;68.74;101326.34;4934183;29;20034;-88
2022/06/06 09:47:05;;;;;;;23.38;16.20;;;;;;;23.31;69.28;101339.84;4915930;28;20028;-85
2022/06/06 09:49:58;;;;;;;24.20;15.32;;;;;;;23.23;69.28;101328.31;4934073;29;20059;-92
2022/06/06 09:52:51;;;;;;;22.20;14.32;;;;;;;23.41;68.01;101290.50;4938738;29;20059;-92
2022/06/06 09:59:03;;;;;;;23.83;16.23;;;;;;;23.92;65.52;101318.31;4919837;29;20086;-90
2022/06/06 10:01:40;;;;;;;25.10;17.10;;;;;;;23.90;66.78;101300.94;4919074;29;20035;-86
2022/06/06 10:04:18;;;;;;;20.75;14.45;;;;;;;23.87;65.59;101307.34;4932904;29;20099;-88
2022/06/06 10:07:05;;;;;;;18.90;14.13;;;;;;;23.87;65.81;101302.06;4927882;29;20039;-89
2022/06/06 10:10:01;;;;;;;18.83;13.90;;;;;;;23.97;65.51;101291.44;4933199;29;20500;-87
2022/06/06 10:13:03;;;;;;;17.13;12.77;;;;;;;24.06;64.27;101295.03;4932150;29;20177;-93
2022/06/06 10:15:32;;;;;;;91.40;51.15;;;;;;;24.13;65.33;101302.22;4943601;29;20055;-85
2022/06/06 10:18:25;;;;;;;21.20;14.60;;;;;;;24.33;64.04;101294.22;4935185;29;20086;-86
2022/06/06 10:21:23;;;;;;;22.60;14.80;;;;;;;24.79;63.17;101288.75;4952023;29;20114;-90
2022/06/06 10:24:27;;;;;;;22.75;14.05;;;;;;;24.85;62.93;101284.66;4919273;29;20023;-89
2022/06/06 10:27:02;;;;;;;18.13;12.52;;;;;;;24.87;61.89;101295.91;4951575;28;20048;-85
2022/06/06 10:32:38;;;;;;;16.10;12.43;;;;;;;24.88;61.44;101285.22;4952963;29;20050;-90
2022/06/06 10:35:29;;;;;;;18.35;12.13;;;;;;;24.92;60.60;101291.03;4951759;29;20027;-85
2022/06/06 10:38:01;;;;;;;18.33;12.95;;;;;;;25.13;61.28;101298.66;4952387;29;20515;-85
2022/06/06 10:40:48;;;;;;;18.13;11.63;;;;;;;25.05;59.48;101296.78;4951923;29;20063;-83
2022/06/06 10:43:28;;;;;;;16.75;10.85;;;;;;;24.82;61.23;101288.44;4950913;29;20419;-91
2022/06/06 10:45:59;;;;;;;26.98;19.20;;;;;;;24.71;60.08;101298.44;4943912;29;20058;-87
2022/06/06 10:48:43;;;;;;;26.40;17.05;;;;;;;24.80;61.20;101306.31;4902959;28;20047;-83
2022/06/06 10:51:40;;;;;;;18.73;12.05;;;;;;;24.95;61.79;101300.47;4948640;29;20035;-85
2022/06/06 10:54:06;;;;;;;15.93;11.77;;;;;;;25.16;61.32;101295.72;4948407;29;20404;-85
2022/06/06 10:56:46;;;;;;;17.23;10.80;;;;;;;25.34;58.67;101296.50;4951168;29;20484;-85
2022/06/06 10:59:11;;;;;;;14.18;10.40;;;;;;;25.30;58.92;101297.00;4950977;29;20500;-85
2022/06/06 11:01:49;;;;;;;14.25;10.50;;;;;;;25.21;59.76;101288.16;4950667;29;20027;-87
2022/06/06 11:04:22;;;;;;;12.38;9.68;;;;;;;25.34;58.54;101272.66;4951275;29;20046;-87
2022/06/06 11:07:03;;;;;;;13.50;9.82;;;;;;;25.43;57.70;101242.59;4950351;29;20030;-93
2022/06/06 11:09:47;;;;;;;13.50;10.10;;;;;;;25.84;55.61;101279.13;4949252;28;20043;-84
2022/06/06 11:12:46;;;;;;;11.35;8.88;;;;;;;25.77;55.45;101272.81;4951971;29;20042;-87
2022/06/06 11:15:12;;;;;;;13.32;9.13;;;;;;;25.96;56.72;101262.78;4951983;29;20137;-91
2022/06/06 11:18:05;;;;;;;11.27;8.50;;;;;;;26.22;55.61;101259.22;4928036;29;20523;-85
2022/06/06 11:20:34;;;;;;;11.48;9.13;;;;;;;26.27;55.90;101259.56;4964605;28;20037;-89
2022/06/06 11:23:19;;;;;;;11.43;8.82;;;;;;;26.42;55.58;101257.97;4946913;29;20083;-90
2022/06/06 11:25:53;;;;;;;14.15;8.45;;;;;;;26.71;55.40;101236.28;4916198;29;20028;-92
2022/06/06 11:28:21;;;;;;;12.35;8.60;;;;;;;26.78;53.46;101265.66;4946626;28;20069;-90
2022/06/06 11:30:53;;;;;;;12.27;9.00;;;;;;;27.00;53.34;101264.97;4949443;29;20043;-88
2022/06/06 11:33:37;;;;;;;11.05;8.48;;;;;;;27.07;54.72;101263.34;4950529;29;20032;-91
2022/06/06 11:36:24;;;;;;;9.48;8.40;;;;;;;27.06;52.37;101267.00;4952204;29;20086;-88
2022/06/06 11:38:55;;;;;;;10.93;8.63;;;;;;;26.93;53.29;101255.19;4940120;29;20067;-90
2022/06/06 11:41:38;;;;;;;13.57;9.25;;;;;;;26.70;54.20;101249.72;4951793;29;20102;-87
2022/06/06 11:44:16;;;;;;;10.45;8.65;;;;;;;26.64;54.78;101242.41;4932206;29;20027;-90
2022/06/06 11:47:01;;;;;;;9.10;8.18;;;;;;;26.78;54.99;101242.59;4940091;29;20044;-86
2022/06/06 11:49:51;;;;;;;16.92;10.68;;;;;;;27.16;52.87;101242.94;4934265;29;20031;-84
2022/06/06 11:52:32;;;;;;;10.68;8.48;;;;;;;27.48;51.38;101233.22;4934911;29;20027;-90
2022/06/06 11:55:44;;;;;;;12.55;8.50;;;;;;;27.59;50.49;101248.81;4952714;29;20043;-87
2022/06/06 11:58:12;;;;;;;9.38;7.78;;;;;;;27.64;50.44;101244.66;4861905;29;20530;-85
2022/06/06 12:00:46;;;;;;;9.70;7.53;;;;;;;27.64;51.17;101209.28;4891973;29;20030;-88
2022/06/06 12:03:20;;;;;;;14.32;11.65;;;;;;;28.00;48.61;101237.03;4895429;29;20428;-86
2022/06/06 12:06:10;;;;;;;15.70;8.45;;;;;;;28.11;49.17;101224.34;4951531;29;20031;-85
2022/06/06 12:08:41;;;;;;;9.65;7.90;;;;;;;28.01;47.95;101221.91;4949983;29;20027;-87
2022/06/06 12:11:31;;;;;;;10.67;8.27;;;;;;;27.76;48.63;101231.84;4949399;29;20060;-91
2022/06/06 12:14:17;;;;;;;14.30;9.15;;;;;;;27.67;49.92;101214.25;4946760;29;20481;-90
2022/06/06 12:17:10;;;;;;;10.85;7.97;;;;;;;27.82;50.79;101227.63;4950099;29;20086;-84
2022/06/06 12:19:50;;;;;;;10.10;8.07;;;;;;;27.70;49.36;101219.22;4947543;29;20556;-81
2022/06/06 12:22:27;;;;;;;9.55;7.50;;;;;;;27.52;48.45;101216.75;4933490;29;20066;-85
2022/06/06 12:25:14;;;;;;;9.63;8.52;;;;;;;27.51;49.67;101212.44;4954284;29;20031;-87
2022/06/06 12:28:00;;;;;;;11.48;8.00;;;;;;;27.76;49.60;101196.44;4943084;29;20032;-93